sensor_id;sensor_type;location;lat;lon;timestamp;temperature;humidity
5588;DHT22;2816;49.778;9.986;2022-09-03T00:00:06;17.20;87.40
5588;DHT22;2816;49.778;9.986;2022-09-03T00:02:43;17.20;87.40
5588;DHT22;2816;49.778;9.986;2022-09-03T00:05:16;17.20;87.30
5588;DHT22;2816;49.778;9.986;2022-09-03T00:07:50;17.20;87.80
5588;DHT22;2816;49.778;9.986;2022-09-03T00:10:27;17.20;87.60
5588;DHT22;2816;49.778;9.986;2022-09-03T00:12:58;17.20;87.80
5588;DHT22;2816;49.778;9.986;2022-09-03T00:15:27;17.20;87.90
5588;DHT22;2816;49.778;9.986;2022-09-03T00:18:00;17.10;87.90
5588;DHT22;2816;49.778;9.986;2022-09-03T00:20:32;17.10;88.40
5588;DHT22;2816;49.778;9.986;2022-09-03T00:23:04;17.00;88.10
5588;DHT22;2816;49.778;9.986;2022-09-03T00:25:37;17.00;88.70
5588;DHT22;2816;49.778;9.986;2022-09-03T00:28:12;17.00;88.90
5588;DHT22;2816;49.778;9.986;2022-09-03T00:30:40;16.90;89.30
5588;DHT22;2816;49.778;9.986;2022-09-03T00:33:12;16.80;89.80
5588;DHT22;2816;49.778;9.986;2022-09-03T00:35:46;16.80;90.10
5588;DHT22;2816;49.778;9.986;2022-09-03T00:38:15;16.60;90.40
5588;DHT22;2816;49.778;9.986;2022-09-03T00:41:01;16.60;90.60
5588;DHT22;2816;49.778;9.986;2022-09-03T00:43:41;16.60;90.60
5588;DHT22;2816;49.778;9.986;2022-09-03T00:46:18;16.60;90.60
5588;DHT22;2816;49.778;9.986;2022-09-03T00:49:05;16.60;90.80
5588;DHT22;2816;49.778;9.986;2022-09-03T00:51:43;16.70;90.60
5588;DHT22;2816;49.778;9.986;2022-09-03T00:54:22;16.60;90.50
5588;DHT22;2816;49.778;9.986;2022-09-03T00:57:04;16.60;90.50
5588;DHT22;2816;49.778;9.986;2022-09-03T00:59:39;16.60;90.70
5588;DHT22;2816;49.778;9.986;2022-09-03T01:02:16;16.60;90.70
5588;DHT22;2816;49.778;9.986;2022-09-03T01:04:54;16.60;91.10
5588;DHT22;2816;49.778;9.986;2022-09-03T01:07:34;16.50;91.00
5588;DHT22;2816;49.778;9.986;2022-09-03T01:10:15;16.40;91.40
5588;DHT22;2816;49.778;9.986;2022-09-03T01:12:50;16.30;91.40
5588;DHT22;2816;49.778;9.986;2022-09-03T01:15:22;16.30;91.70
5588;DHT22;2816;49.778;9.986;2022-09-03T01:18:11;16.30;91.80
5588;DHT22;2816;49.778;9.986;2022-09-03T01:20:53;16.30;91.70
5588;DHT22;2816;49.778;9.986;2022-09-03T01:26:28;16.30;91.70
5588;DHT22;2816;49.778;9.986;2022-09-03T01:29:07;16.30;92.00
5588;DHT22;2816;49.778;9.986;2022-09-03T01:31:47;16.20;91.90
5588;DHT22;2816;49.778;9.986;2022-09-03T01:34:22;16.20;92.10
5588;DHT22;2816;49.778;9.986;2022-09-03T01:37:04;16.20;92.30
5588;DHT22;2816;49.778;9.986;2022-09-03T01:39:43;16.00;92.70
5588;DHT22;2816;49.778;9.986;2022-09-03T01:42:18;15.90;93.00
5588;DHT22;2816;49.778;9.986;2022-09-03T01:45:08;15.80;93.40
5588;DHT22;2816;49.778;9.986;2022-09-03T01:47:48;15.80;93.30
5588;DHT22;2816;49.778;9.986;2022-09-03T01:50:27;15.80;93.20
5588;DHT22;2816;49.778;9.986;2022-09-03T01:53:06;15.80;93.40
5588;DHT22;2816;49.778;9.986;2022-09-03T01:55:42;15.80;93.30
5588;DHT22;2816;49.778;9.986;2022-09-03T01:58:15;15.80;93.10
5588;DHT22;2816;49.778;9.986;2022-09-03T02:00:49;15.80;93.20
5588;DHT22;2816;49.778;9.986;2022-09-03T02:03:22;15.90;93.20
5588;DHT22;2816;49.778;9.986;2022-09-03T02:05:49;15.90;93.20
5588;DHT22;2816;49.778;9.986;2022-09-03T02:08:18;15.90;93.50
5588;DHT22;2816;49.778;9.986;2022-09-03T02:10:47;15.90;93.60
5588;DHT22;2816;49.778;9.986;2022-09-03T02:13:18;15.90;93.30
5588;DHT22;2816;49.778;9.986;2022-09-03T02:15:48;15.90;93.50
5588;DHT22;2816;49.778;9.986;2022-09-03T02:18:18;15.90;93.50
5588;DHT22;2816;49.778;9.986;2022-09-03T02:20:46;15.70;93.60
5588;DHT22;2816;49.778;9.986;2022-09-03T02:23:14;15.70;93.80
5588;DHT22;2816;49.778;9.986;2022-09-03T02:25:46;15.70;93.80
5588;DHT22;2816;49.778;9.986;2022-09-03T02:28:14;15.70;93.90
5588;DHT22;2816;49.778;9.986;2022-09-03T02:30:41;15.70;93.90
5588;DHT22;2816;49.778;9.986;2022-09-03T02:33:09;15.70;93.80
5588;DHT22;2816;49.778;9.986;2022-09-03T02:35:36;15.80;93.90
5588;DHT22;2816;49.778;9.986;2022-09-03T02:38:11;15.80;93.90
5588;DHT22;2816;49.778;9.986;2022-09-03T02:40:39;15.70;94.10
5588;DHT22;2816;49.778;9.986;2022-09-03T02:43:10;15.60;94.40
5588;DHT22;2816;49.778;9.986;2022-09-03T02:45:44;15.60;94.50
5588;DHT22;2816;49.778;9.986;2022-09-03T02:48:16;15.60;94.20
5588;DHT22;2816;49.778;9.986;2022-09-03T02:50:46;15.50;94.50
5588;DHT22;2816;49.778;9.986;2022-09-03T02:53:13;15.60;94.50
5588;DHT22;2816;49.778;9.986;2022-09-03T02:55:40;15.60;94.50
5588;DHT22;2816;49.778;9.986;2022-09-03T02:58:08;15.60;94.40
5588;DHT22;2816;49.778;9.986;2022-09-03T03:00:35;15.60;94.60
5588;DHT22;2816;49.778;9.986;2022-09-03T03:03:03;15.60;95.00
5588;DHT22;2816;49.778;9.986;2022-09-03T03:05:35;15.60;94.80
5588;DHT22;2816;49.778;9.986;2022-09-03T03:08:05;15.50;95.30
5588;DHT22;2816;49.778;9.986;2022-09-03T03:10:33;15.40;95.30
5588;DHT22;2816;49.778;9.986;2022-09-03T03:13:01;15.40;95.30
5588;DHT22;2816;49.778;9.986;2022-09-03T03:15:28;15.40;95.70
5588;DHT22;2816;49.778;9.986;2022-09-03T03:17:55;15.30;95.80
5588;DHT22;2816;49.778;9.986;2022-09-03T03:20:22;15.20;95.90
5588;DHT22;2816;49.778;9.986;2022-09-03T03:22:51;15.20;96.00
5588;DHT22;2816;49.778;9.986;2022-09-03T03:25:18;15.20;96.00
5588;DHT22;2816;49.778;9.986;2022-09-03T03:27:45;15.10;96.40
5588;DHT22;2816;49.778;9.986;2022-09-03T03:30:12;15.10;96.40
5588;DHT22;2816;49.778;9.986;2022-09-03T03:32:39;15.10;96.60
5588;DHT22;2816;49.778;9.986;2022-09-03T03:35:07;15.10;96.60
5588;DHT22;2816;49.778;9.986;2022-09-03T03:37:36;15.10;96.30
5588;DHT22;2816;49.778;9.986;2022-09-03T03:40:05;15.10;96.60
5588;DHT22;2816;49.778;9.986;2022-09-03T03:42:33;15.10;96.60
5588;DHT22;2816;49.778;9.986;2022-09-03T03:45:00;15.00;96.90
5588;DHT22;2816;49.778;9.986;2022-09-03T03:47:27;14.90;97.10
5588;DHT22;2816;49.778;9.986;2022-09-03T03:49:55;14.90;97.20
5588;DHT22;2816;49.778;9.986;2022-09-03T03:52:22;14.80;97.40
5588;DHT22;2816;49.778;9.986;2022-09-03T03:54:49;14.80;97.40
5588;DHT22;2816;49.778;9.986;2022-09-03T03:57:18;14.70;97.60
5588;DHT22;2816;49.778;9.986;2022-09-03T03:59:45;14.70;98.10
5588;DHT22;2816;49.778;9.986;2022-09-03T04:02:13;14.70;98.30
5588;DHT22;2816;49.778;9.986;2022-09-03T04:04:40;14.70;98.20
5588;DHT22;2816;49.778;9.986;2022-09-03T04:07:07;14.60;98.50
5588;DHT22;2816;49.778;9.986;2022-09-03T04:09:34;14.60;98.40
5588;DHT22;2816;49.778;9.986;2022-09-03T04:12:02;14.60;98.30
5588;DHT22;2816;49.778;9.986;2022-09-03T04:14:31;14.60;98.60
5588;DHT22;2816;49.778;9.986;2022-09-03T04:16:58;14.50;98.80
5588;DHT22;2816;49.778;9.986;2022-09-03T04:19:25;14.50;98.80
5588;DHT22;2816;49.778;9.986;2022-09-03T04:21:53;14.50;99.10
5588;DHT22;2816;49.778;9.986;2022-09-03T04:24:20;14.50;99.30
5588;DHT22;2816;49.778;9.986;2022-09-03T04:26:46;14.50;99.30
5588;DHT22;2816;49.778;9.986;2022-09-03T04:29:15;14.50;99.20
5588;DHT22;2816;49.778;9.986;2022-09-03T04:31:44;14.60;99.20
5588;DHT22;2816;49.778;9.986;2022-09-03T04:34:25;14.60;99.20
5588;DHT22;2816;49.778;9.986;2022-09-03T04:36:51;14.60;99.20
5588;DHT22;2816;49.778;9.986;2022-09-03T04:39:18;14.70;99.30
5588;DHT22;2816;49.778;9.986;2022-09-03T04:41:45;14.60;99.50
5588;DHT22;2816;49.778;9.986;2022-09-03T04:44:12;14.60;99.60
5588;DHT22;2816;49.778;9.986;2022-09-03T04:46:40;14.60;99.90
5588;DHT22;2816;49.778;9.986;2022-09-03T04:49:08;14.60;99.90
5588;DHT22;2816;49.778;9.986;2022-09-03T04:51:35;14.60;99.80
5588;DHT22;2816;49.778;9.986;2022-09-03T04:54:03;14.60;99.90
5588;DHT22;2816;49.778;9.986;2022-09-03T04:56:32;14.60;99.70
5588;DHT22;2816;49.778;9.986;2022-09-03T04:59:00;14.60;99.50
5588;DHT22;2816;49.778;9.986;2022-09-03T05:01:29;14.70;99.80
5588;DHT22;2816;49.778;9.986;2022-09-03T05:03:57;14.70;99.20
5588;DHT22;2816;49.778;9.986;2022-09-03T05:06:26;14.80;99.10
5588;DHT22;2816;49.778;9.986;2022-09-03T05:08:54;14.80;99.10
5588;DHT22;2816;49.778;9.986;2022-09-03T05:11:22;14.90;99.00
5588;DHT22;2816;49.778;9.986;2022-09-03T05:13:50;14.90;98.70
5588;DHT22;2816;49.778;9.986;2022-09-03T05:16:18;15.00;98.70
5588;DHT22;2816;49.778;9.986;2022-09-03T05:18:45;15.00;98.70
5588;DHT22;2816;49.778;9.986;2022-09-03T05:21:14;15.00;98.60
5588;DHT22;2816;49.778;9.986;2022-09-03T05:23:44;15.00;99.00
5588;DHT22;2816;49.778;9.986;2022-09-03T05:26:15;15.00;98.60
5588;DHT22;2816;49.778;9.986;2022-09-03T05:28:43;15.00;98.70
5588;DHT22;2816;49.778;9.986;2022-09-03T05:31:12;15.10;98.70
5588;DHT22;2816;49.778;9.986;2022-09-03T05:33:40;15.10;98.60
5588;DHT22;2816;49.778;9.986;2022-09-03T05:36:09;15.00;98.70
5588;DHT22;2816;49.778;9.986;2022-09-03T05:38:36;15.00;98.70
5588;DHT22;2816;49.778;9.986;2022-09-03T05:41:06;15.10;98.70
5588;DHT22;2816;49.778;9.986;2022-09-03T05:43:33;15.10;98.80
5588;DHT22;2816;49.778;9.986;2022-09-03T05:46:01;15.10;98.90
5588;DHT22;2816;49.778;9.986;2022-09-03T05:48:29;15.10;98.90
5588;DHT22;2816;49.778;9.986;2022-09-03T05:50:59;15.10;99.00
5588;DHT22;2816;49.778;9.986;2022-09-03T05:53:27;15.10;99.00
5588;DHT22;2816;49.778;9.986;2022-09-03T05:55:54;15.10;99.10
5588;DHT22;2816;49.778;9.986;2022-09-03T05:58:23;15.10;99.20
5588;DHT22;2816;49.778;9.986;2022-09-03T06:00:51;15.20;99.30
5588;DHT22;2816;49.778;9.986;2022-09-03T06:03:18;15.20;99.20
5588;DHT22;2816;49.778;9.986;2022-09-03T06:05:49;15.30;99.10
5588;DHT22;2816;49.778;9.986;2022-09-03T06:08:16;15.30;98.90
5588;DHT22;2816;49.778;9.986;2022-09-03T06:10:43;15.40;98.90
5588;DHT22;2816;49.778;9.986;2022-09-03T06:13:10;15.40;99.00
5588;DHT22;2816;49.778;9.986;2022-09-03T06:15:39;15.50;98.90
5588;DHT22;2816;49.778;9.986;2022-09-03T06:18:06;15.60;98.80
5588;DHT22;2816;49.778;9.986;2022-09-03T06:20:32;15.60;98.30
5588;DHT22;2816;49.778;9.986;2022-09-03T06:22:59;15.60;98.10
5588;DHT22;2816;49.778;9.986;2022-09-03T06:25:26;15.70;98.10
5588;DHT22;2816;49.778;9.986;2022-09-03T06:27:53;15.80;98.00
5588;DHT22;2816;49.778;9.986;2022-09-03T06:30:20;15.90;98.00
5588;DHT22;2816;49.778;9.986;2022-09-03T06:32:49;15.90;97.90
5588;DHT22;2816;49.778;9.986;2022-09-03T06:35:17;16.00;97.80
5588;DHT22;2816;49.778;9.986;2022-09-03T06:37:44;16.00;97.60
5588;DHT22;2816;49.778;9.986;2022-09-03T06:40:11;16.10;97.40
5588;DHT22;2816;49.778;9.986;2022-09-03T06:42:38;16.10;97.20
5588;DHT22;2816;49.778;9.986;2022-09-03T06:45:07;16.20;97.30
5588;DHT22;2816;49.778;9.986;2022-09-03T06:47:34;16.30;97.20
5588;DHT22;2816;49.778;9.986;2022-09-03T06:50:03;16.30;97.10
5588;DHT22;2816;49.778;9.986;2022-09-03T06:52:30;16.30;96.90
5588;DHT22;2816;49.778;9.986;2022-09-03T06:54:57;16.30;97.00
5588;DHT22;2816;49.778;9.986;2022-09-03T06:57:24;16.30;96.80
5588;DHT22;2816;49.778;9.986;2022-09-03T06:59:51;16.40;96.80
5588;DHT22;2816;49.778;9.986;2022-09-03T07:02:19;16.40;96.70
5588;DHT22;2816;49.778;9.986;2022-09-03T07:04:47;16.50;96.70
5588;DHT22;2816;49.778;9.986;2022-09-03T07:07:16;16.50;96.90
5588;DHT22;2816;49.778;9.986;2022-09-03T07:09:43;16.50;96.70
5588;DHT22;2816;49.778;9.986;2022-09-03T07:12:10;16.60;96.80
5588;DHT22;2816;49.778;9.986;2022-09-03T07:14:40;16.60;96.70
5588;DHT22;2816;49.778;9.986;2022-09-03T07:17:07;16.60;96.50
5588;DHT22;2816;49.778;9.986;2022-09-03T07:19:34;16.70;96.40
5588;DHT22;2816;49.778;9.986;2022-09-03T07:22:01;16.70;96.20
5588;DHT22;2816;49.778;9.986;2022-09-03T07:24:29;16.70;96.30
5588;DHT22;2816;49.778;9.986;2022-09-03T07:26:56;16.80;96.40
5588;DHT22;2816;49.778;9.986;2022-09-03T07:29:23;16.90;96.20
5588;DHT22;2816;49.778;9.986;2022-09-03T07:31:50;16.90;96.10
5588;DHT22;2816;49.778;9.986;2022-09-03T07:34:17;17.00;96.00
5588;DHT22;2816;49.778;9.986;2022-09-03T07:36:46;17.00;95.80
5588;DHT22;2816;49.778;9.986;2022-09-03T07:39:16;17.00;95.60
5588;DHT22;2816;49.778;9.986;2022-09-03T07:41:45;17.10;95.70
5588;DHT22;2816;49.778;9.986;2022-09-03T07:44:12;17.20;95.70
5588;DHT22;2816;49.778;9.986;2022-09-03T07:46:40;17.30;95.80
5588;DHT22;2816;49.778;9.986;2022-09-03T07:49:08;17.40;95.50
5588;DHT22;2816;49.778;9.986;2022-09-03T07:51:37;17.40;95.40
5588;DHT22;2816;49.778;9.986;2022-09-03T07:54:06;17.50;95.30
5588;DHT22;2816;49.778;9.986;2022-09-03T07:56:34;17.50;95.30
5588;DHT22;2816;49.778;9.986;2022-09-03T07:59:04;17.60;95.40
5588;DHT22;2816;49.778;9.986;2022-09-03T08:01:32;17.70;95.10
5588;DHT22;2816;49.778;9.986;2022-09-03T08:04:01;17.80;94.90
5588;DHT22;2816;49.778;9.986;2022-09-03T08:06:29;17.90;94.80
5588;DHT22;2816;49.778;9.986;2022-09-03T08:08:58;18.00;95.00
5588;DHT22;2816;49.778;9.986;2022-09-03T08:11:27;18.10;94.80
5588;DHT22;2816;49.778;9.986;2022-09-03T08:13:55;18.30;94.30
5588;DHT22;2816;49.778;9.986;2022-09-03T08:16:27;18.30;94.20
5588;DHT22;2816;49.778;9.986;2022-09-03T08:18:55;18.40;94.00
5588;DHT22;2816;49.778;9.986;2022-09-03T08:21:23;18.50;94.00
5588;DHT22;2816;49.778;9.986;2022-09-03T08:23:52;18.60;93.80
5588;DHT22;2816;49.778;9.986;2022-09-03T08:26:21;18.50;94.10
5588;DHT22;2816;49.778;9.986;2022-09-03T08:28:51;18.50;93.90
5588;DHT22;2816;49.778;9.986;2022-09-03T08:31:20;18.60;93.90
5588;DHT22;2816;49.778;9.986;2022-09-03T08:33:50;18.50;93.80
5588;DHT22;2816;49.778;9.986;2022-09-03T08:36:19;18.50;94.10
5588;DHT22;2816;49.778;9.986;2022-09-03T08:38:48;18.60;94.00
5588;DHT22;2816;49.778;9.986;2022-09-03T08:41:22;18.60;93.80
5588;DHT22;2816;49.778;9.986;2022-09-03T08:44:13;18.70;93.70
5588;DHT22;2816;49.778;9.986;2022-09-03T08:46:49;18.80;93.80
5588;DHT22;2816;49.778;9.986;2022-09-03T08:49:23;18.90;93.60
5588;DHT22;2816;49.778;9.986;2022-09-03T08:51:51;19.00;93.40
5588;DHT22;2816;49.778;9.986;2022-09-03T08:54:21;18.90;93.30
5588;DHT22;2816;49.778;9.986;2022-09-03T08:56:49;18.80;93.60
5588;DHT22;2816;49.778;9.986;2022-09-03T08:59:17;18.90;93.90
5588;DHT22;2816;49.778;9.986;2022-09-03T09:01:51;19.00;94.30
5588;DHT22;2816;49.778;9.986;2022-09-03T09:04:31;19.20;94.20
5588;DHT22;2816;49.778;9.986;2022-09-03T09:07:08;19.40;93.60
5588;DHT22;2816;49.778;9.986;2022-09-03T09:09:43;19.40;93.10
5588;DHT22;2816;49.778;9.986;2022-09-03T09:12:20;19.50;93.30
5588;DHT22;2816;49.778;9.986;2022-09-03T09:14:55;19.80;93.40
5588;DHT22;2816;49.778;9.986;2022-09-03T09:17:40;19.90;92.90
5588;DHT22;2816;49.778;9.986;2022-09-03T09:20:16;19.90;92.80
5588;DHT22;2816;49.778;9.986;2022-09-03T09:22:46;19.80;93.00
5588;DHT22;2816;49.778;9.986;2022-09-03T09:25:17;19.90;92.90
5588;DHT22;2816;49.778;9.986;2022-09-03T09:27:55;20.10;92.10
5588;DHT22;2816;49.778;9.986;2022-09-03T09:30:24;20.10;92.50
5588;DHT22;2816;49.778;9.986;2022-09-03T09:32:51;20.10;92.30
5588;DHT22;2816;49.778;9.986;2022-09-03T09:35:20;20.10;92.50
5588;DHT22;2816;49.778;9.986;2022-09-03T09:37:49;20.20;92.30
5588;DHT22;2816;49.778;9.986;2022-09-03T09:40:24;20.30;92.60
5588;DHT22;2816;49.778;9.986;2022-09-03T09:43:03;20.30;92.00
5588;DHT22;2816;49.778;9.986;2022-09-03T09:45:30;20.30;92.20
5588;DHT22;2816;49.778;9.986;2022-09-03T09:47:59;20.50;91.80
5588;DHT22;2816;49.778;9.986;2022-09-03T09:50:28;20.40;91.70
5588;DHT22;2816;49.778;9.986;2022-09-03T09:52:59;20.70;91.80
5588;DHT22;2816;49.778;9.986;2022-09-03T09:55:30;20.80;91.40
5588;DHT22;2816;49.778;9.986;2022-09-03T09:58:04;20.80;91.30
5588;DHT22;2816;49.778;9.986;2022-09-03T10:00:34;21.00;91.20
5588;DHT22;2816;49.778;9.986;2022-09-03T10:03:06;21.20;91.00
5588;DHT22;2816;49.778;9.986;2022-09-03T10:05:37;21.30;90.60
5588;DHT22;2816;49.778;9.986;2022-09-03T10:08:07;21.10;90.70
5588;DHT22;2816;49.778;9.986;2022-09-03T10:10:46;21.10;91.00
5588;DHT22;2816;49.778;9.986;2022-09-03T10:13:17;21.10;91.20
5588;DHT22;2816;49.778;9.986;2022-09-03T10:15:49;21.20;90.70
5588;DHT22;2816;49.778;9.986;2022-09-03T10:18:23;21.20;90.60
5588;DHT22;2816;49.778;9.986;2022-09-03T10:20:59;21.10;90.80
5588;DHT22;2816;49.778;9.986;2022-09-03T10:23:34;21.10;90.70
5588;DHT22;2816;49.778;9.986;2022-09-03T10:26:09;21.10;90.80
5588;DHT22;2816;49.778;9.986;2022-09-03T10:28:41;21.20;91.00
5588;DHT22;2816;49.778;9.986;2022-09-03T10:31:27;21.30;90.80
5588;DHT22;2816;49.778;9.986;2022-09-03T10:34:00;21.50;90.90
5588;DHT22;2816;49.778;9.986;2022-09-03T10:36:34;21.80;90.40
5588;DHT22;2816;49.778;9.986;2022-09-03T10:39:07;21.70;90.20
5588;DHT22;2816;49.778;9.986;2022-09-03T10:41:46;21.80;90.50
5588;DHT22;2816;49.778;9.986;2022-09-03T10:44:29;22.20;90.40
5588;DHT22;2816;49.778;9.986;2022-09-03T10:47:11;22.50;90.10
5588;DHT22;2816;49.778;9.986;2022-09-03T10:49:50;22.90;89.40
5588;DHT22;2816;49.778;9.986;2022-09-03T10:52:26;22.90;88.00
5588;DHT22;2816;49.778;9.986;2022-09-03T10:55:12;23.10;87.70
5588;DHT22;2816;49.778;9.986;2022-09-03T10:57:47;23.30;88.10
5588;DHT22;2816;49.778;9.986;2022-09-03T11:00:15;22.80;87.70
5588;DHT22;2816;49.778;9.986;2022-09-03T11:05:52;23.40;87.90
5588;DHT22;2816;49.778;9.986;2022-09-03T11:08:24;23.50;86.90
5588;DHT22;2816;49.778;9.986;2022-09-03T11:10:55;23.80;86.60
5588;DHT22;2816;49.778;9.986;2022-09-03T11:13:25;23.50;86.90
5588;DHT22;2816;49.778;9.986;2022-09-03T11:16:02;23.40;86.80
5588;DHT22;2816;49.778;9.986;2022-09-03T11:18:35;23.40;87.00
5588;DHT22;2816;49.778;9.986;2022-09-03T11:21:06;23.20;87.40
5588;DHT22;2816;49.778;9.986;2022-09-03T11:23:39;23.40;87.00
5588;DHT22;2816;49.778;9.986;2022-09-03T11:26:08;23.50;86.50
5588;DHT22;2816;49.778;9.986;2022-09-03T11:28:42;23.50;86.90
5588;DHT22;2816;49.778;9.986;2022-09-03T11:31:23;23.70;86.80
5588;DHT22;2816;49.778;9.986;2022-09-03T11:33:55;23.60;86.10
5588;DHT22;2816;49.778;9.986;2022-09-03T11:36:29;23.40;86.50
5588;DHT22;2816;49.778;9.986;2022-09-03T11:38:58;23.40;86.70
5588;DHT22;2816;49.778;9.986;2022-09-03T11:41:27;23.50;86.80
5588;DHT22;2816;49.778;9.986;2022-09-03T11:44:10;23.80;86.30
5588;DHT22;2816;49.778;9.986;2022-09-03T11:46:52;24.00;86.40
5588;DHT22;2816;49.778;9.986;2022-09-03T11:49:27;24.20;85.70
5588;DHT22;2816;49.778;9.986;2022-09-03T11:51:58;24.30;84.80
5588;DHT22;2816;49.778;9.986;2022-09-03T11:54:30;23.90;85.40
5588;DHT22;2816;49.778;9.986;2022-09-03T11:57:11;24.10;85.20
5588;DHT22;2816;49.778;9.986;2022-09-03T11:59:41;23.90;86.30
5588;DHT22;2816;49.778;9.986;2022-09-03T12:02:26;23.90;86.40
5588;DHT22;2816;49.778;9.986;2022-09-03T12:05:09;23.70;86.20
5588;DHT22;2816;49.778;9.986;2022-09-03T12:07:54;23.60;86.20
5588;DHT22;2816;49.778;9.986;2022-09-03T12:10:40;23.60;86.60
5588;DHT22;2816;49.778;9.986;2022-09-03T12:13:26;23.80;86.80
5588;DHT22;2816;49.778;9.986;2022-09-03T12:18:47;23.70;86.30
5588;DHT22;2816;49.778;9.986;2022-09-03T12:21:18;23.70;87.00
5588;DHT22;2816;49.778;9.986;2022-09-03T12:23:46;24.00;86.50
5588;DHT22;2816;49.778;9.986;2022-09-03T12:26:17;24.10;86.10
5588;DHT22;2816;49.778;9.986;2022-09-03T12:28:46;24.10;86.30
5588;DHT22;2816;49.778;9.986;2022-09-03T12:31:15;24.00;85.40
5588;DHT22;2816;49.778;9.986;2022-09-03T12:33:52;23.80;86.20
5588;DHT22;2816;49.778;9.986;2022-09-03T12:36:20;23.70;85.60
5588;DHT22;2816;49.778;9.986;2022-09-03T12:38:47;23.80;86.70
5588;DHT22;2816;49.778;9.986;2022-09-03T12:41:23;23.60;86.00
5588;DHT22;2816;49.778;9.986;2022-09-03T12:43:54;23.70;86.40
5588;DHT22;2816;49.778;9.986;2022-09-03T12:46:26;23.70;86.10
5588;DHT22;2816;49.778;9.986;2022-09-03T12:48:55;23.70;85.60
5588;DHT22;2816;49.778;9.986;2022-09-03T12:51:23;23.60;85.60
5588;DHT22;2816;49.778;9.986;2022-09-03T12:53:51;23.80;86.00
5588;DHT22;2816;49.778;9.986;2022-09-03T12:56:19;23.90;86.30
5588;DHT22;2816;49.778;9.986;2022-09-03T12:58:52;23.80;86.50
5588;DHT22;2816;49.778;9.986;2022-09-03T13:01:23;23.60;87.10
5588;DHT22;2816;49.778;9.986;2022-09-03T13:03:54;23.30;87.20
5588;DHT22;2816;49.778;9.986;2022-09-03T13:06:24;23.20;87.50
5588;DHT22;2816;49.778;9.986;2022-09-03T13:08:54;23.10;88.40
5588;DHT22;2816;49.778;9.986;2022-09-03T13:11:23;23.20;87.80
5588;DHT22;2816;49.778;9.986;2022-09-03T13:13:55;23.10;87.80
5588;DHT22;2816;49.778;9.986;2022-09-03T13:17:01;23.20;88.00
5588;DHT22;2816;49.778;9.986;2022-09-03T13:19:42;23.30;87.60
5588;DHT22;2816;49.778;9.986;2022-09-03T13:22:20;23.30;87.60
5588;DHT22;2816;49.778;9.986;2022-09-03T13:25:12;23.30;87.60
5588;DHT22;2816;49.778;9.986;2022-09-03T13:27:49;23.30;88.10
5588;DHT22;2816;49.778;9.986;2022-09-03T13:30:22;23.30;88.30
5588;DHT22;2816;49.778;9.986;2022-09-03T13:32:58;23.40;88.10
5588;DHT22;2816;49.778;9.986;2022-09-03T13:35:32;23.30;88.30
5588;DHT22;2816;49.778;9.986;2022-09-03T13:38:07;23.20;88.90
5588;DHT22;2816;49.778;9.986;2022-09-03T13:40:41;23.20;89.00
5588;DHT22;2816;49.778;9.986;2022-09-03T13:43:21;23.20;88.70
5588;DHT22;2816;49.778;9.986;2022-09-03T13:45:56;23.20;88.90
5588;DHT22;2816;49.778;9.986;2022-09-03T13:48:29;23.20;88.70
5588;DHT22;2816;49.778;9.986;2022-09-03T13:51:36;23.40;89.00
5588;DHT22;2816;49.778;9.986;2022-09-03T13:54:11;23.30;87.90
5588;DHT22;2816;49.778;9.986;2022-09-03T13:56:53;23.30;87.20
5588;DHT22;2816;49.778;9.986;2022-09-03T13:59:30;23.40;88.20
5588;DHT22;2816;49.778;9.986;2022-09-03T14:02:17;23.40;88.20
5588;DHT22;2816;49.778;9.986;2022-09-03T14:04:57;23.50;87.50
5588;DHT22;2816;49.778;9.986;2022-09-03T14:07:40;23.40;88.10
5588;DHT22;2816;49.778;9.986;2022-09-03T14:10:20;23.50;87.00
5588;DHT22;2816;49.778;9.986;2022-09-03T14:12:52;23.50;88.60
5588;DHT22;2816;49.778;9.986;2022-09-03T14:15:25;23.40;87.60
5588;DHT22;2816;49.778;9.986;2022-09-03T14:18:01;23.40;87.90
5588;DHT22;2816;49.778;9.986;2022-09-03T14:20:40;23.50;88.30
5588;DHT22;2816;49.778;9.986;2022-09-03T14:23:21;23.50;87.50
5588;DHT22;2816;49.778;9.986;2022-09-03T14:25:54;23.50;87.30
5588;DHT22;2816;49.778;9.986;2022-09-03T14:28:29;23.50;87.90
5588;DHT22;2816;49.778;9.986;2022-09-03T14:31:02;23.50;88.20
5588;DHT22;2816;49.778;9.986;2022-09-03T14:33:40;23.70;87.00
5588;DHT22;2816;49.778;9.986;2022-09-03T14:36:15;24.10;87.70
5588;DHT22;2816;49.778;9.986;2022-09-03T14:39:01;24.30;86.20
5588;DHT22;2816;49.778;9.986;2022-09-03T14:41:53;24.30;86.80
5588;DHT22;2816;49.778;9.986;2022-09-03T14:47:29;24.70;87.20
5588;DHT22;2816;49.778;9.986;2022-09-03T14:50:17;25.00;86.70
5588;DHT22;2816;49.778;9.986;2022-09-03T14:53:10;25.30;85.50
5588;DHT22;2816;49.778;9.986;2022-09-03T14:56:03;25.40;84.70
5588;DHT22;2816;49.778;9.986;2022-09-03T14:58:43;25.30;84.20
5588;DHT22;2816;49.778;9.986;2022-09-03T15:01:20;25.50;83.90
5588;DHT22;2816;49.778;9.986;2022-09-03T15:04:22;25.50;84.00
5588;DHT22;2816;49.778;9.986;2022-09-03T15:07:04;25.60;84.80
5588;DHT22;2816;49.778;9.986;2022-09-03T15:09:39;25.60;83.60
5588;DHT22;2816;49.778;9.986;2022-09-03T15:12:15;25.50;83.70
5588;DHT22;2816;49.778;9.986;2022-09-03T15:14:49;25.40;84.00
5588;DHT22;2816;49.778;9.986;2022-09-03T15:17:42;25.80;82.80
5588;DHT22;2816;49.778;9.986;2022-09-03T15:20:35;26.30;82.00
5588;DHT22;2816;49.778;9.986;2022-09-03T15:23:22;26.00;81.80
5588;DHT22;2816;49.778;9.986;2022-09-03T15:26:32;25.60;82.30
5588;DHT22;2816;49.778;9.986;2022-09-03T15:29:27;26.10;82.00
5588;DHT22;2816;49.778;9.986;2022-09-03T15:32:01;26.40;81.50
5588;DHT22;2816;49.778;9.986;2022-09-03T15:34:46;27.00;79.80
5588;DHT22;2816;49.778;9.986;2022-09-03T15:37:20;26.90;80.20
5588;DHT22;2816;49.778;9.986;2022-09-03T15:40:00;26.90;80.00
5588;DHT22;2816;49.778;9.986;2022-09-03T15:42:28;26.90;80.10
5588;DHT22;2816;49.778;9.986;2022-09-03T15:45:02;26.80;79.10
5588;DHT22;2816;49.778;9.986;2022-09-03T15:47:39;26.60;80.10
5588;DHT22;2816;49.778;9.986;2022-09-03T15:50:14;27.00;79.10
5588;DHT22;2816;49.778;9.986;2022-09-03T15:52:51;26.50;80.00
5588;DHT22;2816;49.778;9.986;2022-09-03T15:55:29;26.30;80.10
5588;DHT22;2816;49.778;9.986;2022-09-03T15:57:59;26.50;80.30
5588;DHT22;2816;49.778;9.986;2022-09-03T16:00:52;26.50;79.40
5588;DHT22;2816;49.778;9.986;2022-09-03T16:03:34;26.20;80.80
5588;DHT22;2816;49.778;9.986;2022-09-03T16:06:07;25.80;81.00
5588;DHT22;2816;49.778;9.986;2022-09-03T16:08:47;25.70;80.90
5588;DHT22;2816;49.778;9.986;2022-09-03T16:11:20;25.90;80.50
5588;DHT22;2816;49.778;9.986;2022-09-03T16:14:00;25.30;81.40
5588;DHT22;2816;49.778;9.986;2022-09-03T16:16:41;25.50;82.10
5588;DHT22;2816;49.778;9.986;2022-09-03T16:19:16;25.80;81.20
5588;DHT22;2816;49.778;9.986;2022-09-03T16:21:48;25.70;80.80
5588;DHT22;2816;49.778;9.986;2022-09-03T16:24:23;25.80;80.70
5588;DHT22;2816;49.778;9.986;2022-09-03T16:26:58;25.70;80.90
5588;DHT22;2816;49.778;9.986;2022-09-03T16:29:30;25.50;81.10
5588;DHT22;2816;49.778;9.986;2022-09-03T16:32:10;25.30;81.40
5588;DHT22;2816;49.778;9.986;2022-09-03T16:34:46;25.20;82.00
5588;DHT22;2816;49.778;9.986;2022-09-03T16:37:23;25.00;82.50
5588;DHT22;2816;49.778;9.986;2022-09-03T16:39:57;24.90;82.80
5588;DHT22;2816;49.778;9.986;2022-09-03T16:42:33;24.80;82.60
5588;DHT22;2816;49.778;9.986;2022-09-03T16:45:11;24.80;82.90
5588;DHT22;2816;49.778;9.986;2022-09-03T16:47:53;24.70;83.00
5588;DHT22;2816;49.778;9.986;2022-09-03T16:50:37;24.70;83.20